Time;durP1;ratioP1;P1;durP2;ratioP2;P2;SDS_P1;SDS_P2;PMS_P1;PMS_P2;Temp;Humidity;BMP_temperature;BMP_pressure;BME280_temperature;BME280_humidity;BME280_pressure;Samples;Min_cycle;Max_cycle;Signal;HPM_P1;HPM_P2
2020/12/27 00:00:23;;;;;;;10.98;6.70;;;2.60;99.90;;;;;;5125240;27;20023;-75
2020/12/27 00:02:48;;;;;;;14.55;8.77;;;2.60;99.90;;;;;;5129537;27;20051;-75
2020/12/27 00:05:15;;;;;;;12.85;7.03;;;2.60;99.90;;;;;;5129782;27;20109;-77
2020/12/27 00:07:40;;;;;;;11.40;6.80;;;2.50;99.90;;;;;;5131534;27;20023;-79
2020/12/27 00:10:06;;;;;;;11.52;7.05;;;2.50;99.90;;;;;;5135737;27;20035;-76
2020/12/27 00:12:32;;;;;;;10.02;6.38;;;2.30;99.90;;;;;;5134729;27;20027;-75
2020/12/27 00:14:58;;;;;;;9.43;6.70;;;2.50;99.90;;;;;;5138683;27;20069;-76
2020/12/27 00:17:23;;;;;;;10.38;6.47;;;2.40;99.90;;;;;;5132919;27;20019;-76
2020/12/27 00:19:49;;;;;;;11.10;6.10;;;2.40;99.90;;;;;;5133800;27;20043;-77
2020/12/27 00:22:15;;;;;;;11.82;7.07;;;2.40;99.90;;;;;;5134373;27;20031;-75
2020/12/27 00:24:41;;;;;;;9.63;6.78;;;2.40;99.90;;;;;;5138334;27;20031;-79
2020/12/27 00:27:06;;;;;;;12.15;6.65;;;2.40;99.90;;;;;;5131596;27;20026;-78
2020/12/27 00:29:32;;;;;;;13.05;6.93;;;2.40;99.90;;;;;;5141309;27;20055;-74
2020/12/27 00:31:57;;;;;;;9.48;5.53;;;2.40;99.90;;;;;;5130489;27;20031;-74
2020/12/27 00:34:24;;;;;;;12.60;7.03;;;2.40;99.90;;;;;;5114250;27;20103;-75
2020/12/27 00:36:54;;;;;;;11.65;6.68;;;2.30;99.90;;;;;;5131036;27;20031;-77
2020/12/27 00:39:21;;;;;;;12.02;7.95;;;2.30;99.90;;;;;;5133558;27;20427;-76
2020/12/27 00:41:47;;;;;;;13.45;7.07;;;2.20;99.90;;;;;;5134158;27;20027;-78
2020/12/27 00:44:13;;;;;;;11.35;6.15;;;2.20;99.90;;;;;;5133379;27;20055;-77
2020/12/27 00:46:38;;;;;;;11.30;7.30;;;2.20;99.90;;;;;;5136804;27;20030;-78
2020/12/27 00:49:04;;;;;;;10.05;6.55;;;2.30;99.90;;;;;;5136534;27;20102;-79
2020/12/27 00:51:29;;;;;;;11.85;7.07;;;2.20;99.90;;;;;;5134598;27;20031;-77
2020/12/27 00:53:55;;;;;;;12.55;7.35;;;2.20;99.90;;;;;;5133798;27;20015;-75
2020/12/27 00:56:20;;;;;;;10.18;6.53;;;2.20;99.90;;;;;;5115700;28;20045;-76
2020/12/27 00:58:46;;;;;;;11.75;6.97;;;2.20;99.90;;;;;;5134192;27;20080;-76
2020/12/27 01:01:12;;;;;;;10.45;6.13;;;2.20;99.90;;;;;;5131873;28;20039;-76
2020/12/27 01:03:40;;;;;;;12.40;6.78;;;2.10;99.90;;;;;;5133089;28;20487;-75
2020/12/27 01:06:06;;;;;;;10.35;6.50;;;;;;;;;;5135549;27;20044;-74
2020/12/27 01:08:31;;;;;;;11.57;6.47;;;2.10;99.90;;;;;;5139083;27;20027;-77
2020/12/27 01:11:00;;;;;;;10.73;6.78;;;2.10;99.90;;;;;;5136507;27;20020;-75
2020/12/27 01:13:26;;;;;;;11.05;6.90;;;2.10;99.90;;;;;;5131648;27;20117;-75
2020/12/27 01:15:51;;;;;;;10.98;6.43;;;2.10;99.90;;;;;;5132249;27;20046;-75
2020/12/27 01:18:17;;;;;;;11.45;6.65;;;2.10;99.90;;;;;;5134640;27;20403;-74
2020/12/27 01:20:42;;;;;;;11.80;6.25;;;2.20;99.90;;;;;;5134635;27;20027;-74
2020/12/27 01:23:08;;;;;;;9.27;5.90;;;2.10;99.90;;;;;;5134473;27;20103;-74
2020/12/27 01:25:33;;;;;;;10.55;6.40;;;2.20;99.90;;;;;;5134148;27;20029;-75
2020/12/27 01:27:59;;;;;;;9.43;5.90;;;2.20;99.90;;;;;;5130863;27;20027;-75
2020/12/27 01:30:24;;;;;;;8.93;5.63;;;2.10;99.90;;;;;;5134656;27;20090;-76
2020/12/27 01:32:50;;;;;;;8.63;6.20;;;2.10;99.90;;;;;;5130382;27;20432;-75
2020/12/27 01:35:15;;;;;;;11.23;5.97;;;2.10;99.90;;;;;;5133272;27;20030;-75
2020/12/27 01:37:41;;;;;;;8.73;6.15;;;2.10;99.90;;;;;;5112763;27;20024;-75
2020/12/27 01:40:07;;;;;;;11.48;6.28;;;2.10;99.90;;;;;;5129907;27;20391;-75
2020/12/27 01:42:32;;;;;;;9.13;5.95;;;2.10;99.90;;;;;;5130433;27;20084;-75
2020/12/27 01:44:58;;;;;;;9.90;5.78;;;2.10;99.90;;;;;;5133982;27;20542;-75
2020/12/27 01:47:23;;;;;;;9.73;6.22;;;2.10;99.90;;;;;;5129749;27;20024;-74
2020/12/27 01:49:50;;;;;;;11.80;6.00;;;2.10;99.90;;;;;;5131912;27;20110;-76
2020/12/27 01:52:17;;;;;;;9.05;6.15;;;2.10;99.90;;;;;;5132848;27;20031;-74
2020/12/27 01:54:43;;;;;;;10.43;6.38;;;2.10;99.90;;;;;;5131715;27;20072;-75
2020/12/27 01:57:15;;;;;;;10.07;5.28;;;2.00;99.90;;;;;;5130447;27;20027;-75
2020/12/27 01:59:41;;;;;;;8.73;5.38;;;2.10;99.90;;;;;;5130974;27;20121;-75
2020/12/27 02:02:07;;;;;;;9.30;5.45;;;2.10;99.90;;;;;;5134394;27;20055;-75
2020/12/27 02:04:34;;;;;;;10.45;5.43;;;2.10;99.90;;;;;;5134425;27;20032;-75
2020/12/27 02:07:00;;;;;;;8.27;5.53;;;2.10;99.90;;;;;;5137470;27;20048;-74
2020/12/27 02:09:25;;;;;;;9.35;5.68;;;2.10;99.90;;;;;;5137619;27;20030;-75
2020/12/27 02:12:11;;;;;;;8.55;5.70;;;2.20;99.90;;;;;;5140638;27;20035;-79
2020/12/27 02:14:38;;;;;;;10.23;6.10;;;2.10;99.90;;;;;;5141687;27;20027;-81
2020/12/27 02:17:05;;;;;;;7.80;5.18;;;2.20;99.90;;;;;;5143371;27;20027;-77
2020/12/27 02:19:31;;;;;;;8.05;5.50;;;2.20;99.90;;;;;;5144153;27;20027;-78
2020/12/27 02:21:57;;;;;;;9.32;5.45;;;2.20;99.90;;;;;;5128632;28;20068;-78
2020/12/27 02:24:23;;;;;;;8.50;5.22;;;2.10;99.90;;;;;;5137478;27;20067;-78
2020/12/27 02:26:59;;;;;;;8.73;6.07;;;2.10;99.90;;;;;;5132766;27;20019;-75
2020/12/27 02:29:26;;;;;;;7.85;5.60;;;2.10;99.90;;;;;;5128869;27;20383;-74
2020/12/27 02:31:55;;;;;;;10.38;6.22;;;2.20;99.90;;;;;;5130894;27;20019;-80
2020/12/27 02:34:22;;;;;;;9.73;5.50;;;2.20;99.90;;;;;;5139094;27;20050;-80
2020/12/27 02:36:48;;;;;;;9.63;5.32;;;;;;;;;;5149654;27;20042;-79
2020/12/27 02:39:16;;;;;;;9.07;5.90;;;2.10;99.90;;;;;;5145246;27;20023;-78
2020/12/27 02:41:41;;;;;;;7.50;5.40;;;2.10;99.90;;;;;;5143851;27;20041;-79
2020/12/27 02:44:08;;;;;;;10.05;5.30;;;2.10;99.90;;;;;;5137210;27;20035;-80
2020/12/27 02:46:33;;;;;;;9.25;5.45;;;2.10;99.90;;;;;;5140170;27;20096;-79
2020/12/27 02:49:01;;;;;;;6.63;5.15;;;2.10;99.90;;;;;;5138309;27;20031;-79
2020/12/27 02:51:27;;;;;;;8.75;5.22;;;2.10;99.90;;;;;;5125218;27;20043;-76
2020/12/27 02:53:53;;;;;;;9.05;5.78;;;2.10;99.90;;;;;;5151405;27;20033;-76
2020/12/27 02:56:24;;;;;;;7.30;4.97;;;2.10;99.90;;;;;;5146093;27;20097;-76
2020/12/27 02:58:50;;;;;;;9.07;4.82;;;2.10;99.90;;;;;;5137137;27;20043;-80
2020/12/27 03:01:17;;;;;;;6.30;4.43;;;2.10;99.90;;;;;;5144706;27;20035;-78
2020/12/27 03:03:42;;;;;;;9.43;5.10;;;2.20;99.90;;;;;;5142009;27;20122;-76
2020/12/27 03:06:08;;;;;;;6.35;4.47;;;2.20;99.90;;;;;;5128351;27;20412;-76
2020/12/27 03:08:34;;;;;;;8.18;4.57;;;2.20;99.90;;;;;;5134542;27;20470;-75
2020/12/27 03:10:59;;;;;;;6.50;4.30;;;2.20;99.90;;;;;;5107446;27;20032;-75
2020/12/27 03:13:25;;;;;;;7.50;4.72;;;2.20;99.90;;;;;;5128336;27;20486;-75
2020/12/27 03:15:51;;;;;;;7.70;4.85;;;2.20;99.90;;;;;;5129207;27;20035;-74
2020/12/27 03:18:22;;;;;;;8.30;4.15;;;2.20;99.90;;;;;;5128386;27;20077;-75
2020/12/27 03:20:49;;;;;;;9.35;4.00;;;2.20;99.90;;;;;;5128023;27;20085;-75
2020/12/27 03:23:15;;;;;;;6.68;4.88;;;2.10;99.90;;;;;;5126520;27;20042;-76
2020/12/27 03:25:41;;;;;;;6.05;4.25;;;2.10;99.90;;;;;;5124972;27;20027;-74
2020/12/27 03:28:06;;;;;;;7.95;4.35;;;2.10;99.90;;;;;;5123963;27;20027;-75
2020/12/27 03:30:32;;;;;;;6.78;4.18;;;2.10;99.90;;;;;;5127768;27;20481;-75
2020/12/27 03:32:57;;;;;;;6.93;4.55;;;2.10;99.90;;;;;;5105270;27;20023;-75
2020/12/27 03:35:23;;;;;;;6.35;4.22;;;2.10;99.90;;;;;;5128155;27;20050;-75
2020/12/27 03:37:48;;;;;;;9.95;4.40;;;2.10;99.90;;;;;;5123928;27;20138;-75
2020/12/27 03:40:14;;;;;;;8.48;4.25;;;2.10;99.90;;;;;;5126792;27;20110;-75
2020/12/27 03:42:40;;;;;;;7.85;4.35;;;2.10;99.90;;;;;;5129732;27;20034;-76
2020/12/27 03:45:05;;;;;;;7.53;5.03;;;2.20;99.90;;;;;;5129896;27;20088;-75
2020/12/27 03:47:31;;;;;;;7.10;4.72;;;2.20;99.90;;;;;;5126081;27;20064;-75
2020/12/27 03:49:56;;;;;;;7.40;4.70;;;2.20;99.90;;;;;;5128297;27;20600;-75
2020/12/27 03:52:22;;;;;;;6.32;3.78;;;2.20;99.90;;;;;;5127078;27;20550;-75
2020/12/27 03:54:48;;;;;;;7.10;4.45;;;;;;;;;;5125652;27;20421;-75
2020/12/27 03:57:13;;;;;;;6.93;4.20;;;2.10;99.90;;;;;;5126632;27;20043;-75
2020/12/27 03:59:39;;;;;;;8.63;4.80;;;2.20;99.90;;;;;;5124253;27;20023;-76
2020/12/27 04:02:04;;;;;;;6.45;4.80;;;2.20;99.90;;;;;;5126239;27;20034;-75
2020/12/27 04:04:30;;;;;;;6.97;4.03;;;2.20;99.90;;;;;;5126432;27;20027;-75
2020/12/27 04:06:55;;;;;;;8.68;4.20;;;2.20;99.90;;;;;;5127167;27;20033;-75
2020/12/27 04:09:22;;;;;;;8.75;5.15;;;2.20;99.90;;;;;;5134253;27;20031;-75
2020/12/27 04:11:47;;;;;;;8.52;4.45;;;2.20;99.90;;;;;;5131313;27;20467;-75
2020/12/27 04:14:13;;;;;;;6.78;4.50;;;2.10;99.90;;;;;;5132351;27;20034;-75
2020/12/27 04:16:38;;;;;;;6.40;4.45;;;2.20;99.90;;;;;;5131350;27;20039;-75
2020/12/27 04:19:04;;;;;;;6.70;4.45;;;2.20;99.90;;;;;;5131351;27;20030;-75
2020/12/27 04:21:29;;;;;;;6.65;4.65;;;2.20;99.90;;;;;;5130156;27;20084;-76
2020/12/27 04:23:55;;;;;;;9.80;4.55;;;2.10;99.90;;;;;;5133081;27;20039;-74
2020/12/27 04:26:22;;;;;;;7.00;5.53;;;2.20;99.90;;;;;;5129024;27;20029;-75
2020/12/27 04:28:48;;;;;;;6.00;4.47;;;2.20;99.90;;;;;;5112353;27;20437;-75
2020/12/27 04:31:20;;;;;;;5.20;3.97;;;2.20;99.90;;;;;;5122226;27;20024;-74
2020/12/27 04:33:47;;;;;;;8.45;4.85;;;2.10;99.90;;;;;;5132889;27;20031;-76
2020/12/27 04:36:16;;;;;;;6.25;4.65;;;2.10;99.90;;;;;;5127238;27;20023;-75
2020/12/27 04:38:41;;;;;;;7.00;4.15;;;2.10;99.90;;;;;;5129778;27;20053;-75
2020/12/27 04:41:07;;;;;;;6.60;4.45;;;2.10;99.90;;;;;;5133081;27;20019;-75
2020/12/27 04:43:35;;;;;;;6.07;3.95;;;2.00;99.90;;;;;;5139166;27;20031;-76
2020/12/27 04:46:03;;;;;;;7.93;4.40;;;2.00;99.90;;;;;;5132192;27;20437;-76
2020/12/27 04:48:30;;;;;;;7.47;4.63;;;2.00;99.90;;;;;;5137274;27;20538;-77
2020/12/27 04:51:01;;;;;;;7.32;4.70;;;2.00;99.90;;;;;;5134438;27;20041;-78
2020/12/27 04:53:27;;;;;;;6.15;4.63;;;2.10;99.90;;;;;;5146201;27;20047;-75
2020/12/27 04:55:55;;;;;;;6.97;4.38;;;2.10;99.90;;;;;;5143633;27;20034;-75
2020/12/27 04:58:22;;;;;;;7.00;4.35;;;2.00;99.90;;;;;;5124753;27;20114;-79
2020/12/27 05:00:48;;;;;;;9.05;4.55;;;2.10;99.90;;;;;;5144838;27;20030;-76
2020/12/27 05:03:14;;;;;;;8.82;4.70;;;2.10;99.90;;;;;;5153763;28;20039;-79
2020/12/27 05:05:39;;;;;;;6.82;4.85;;;2.10;99.90;;;;;;5144923;28;20085;-77
2020/12/27 05:08:05;;;;;;;9.10;5.20;;;2.10;99.90;;;;;;5122051;28;20087;-76
2020/12/27 05:10:30;;;;;;;7.38;4.90;;;2.00;99.90;;;;;;5129881;28;20020;-75
2020/12/27 05:12:56;;;;;;;7.72;5.20;;;2.00;99.90;;;;;;5137338;28;20058;-76
2020/12/27 05:15:24;;;;;;;7.20;4.72;;;1.90;99.90;;;;;;5134667;28;20039;-77
2020/12/27 05:17:50;;;;;;;9.13;5.35;;;2.00;99.90;;;;;;5129112;28;20069;-78
2020/12/27 05:20:18;;;;;;;7.10;4.97;;;2.00;99.90;;;;;;5139246;28;20039;-76
2020/12/27 05:22:46;;;;;;;6.88;5.30;;;2.00;99.90;;;;;;5143549;28;20118;-74
2020/12/27 05:25:13;;;;;;;10.63;5.53;;;2.00;99.90;;;;;;5137037;28;20118;-76
2020/12/27 05:27:42;;;;;;;7.75;5.15;;;2.00;99.90;;;;;;5127040;28;20043;-74
2020/12/27 05:30:09;;;;;;;8.50;5.15;;;2.00;99.90;;;;;;5136102;28;20035;-75
2020/12/27 05:32:35;;;;;;;9.13;5.00;;;1.90;99.90;;;;;;5138521;28;20019;-77
2020/12/27 05:35:08;;;;;;;11.18;5.40;;;1.80;99.90;;;;;;5136360;28;20023;-76
2020/12/27 05:37:34;;;;;;;8.77;5.75;;;1.80;99.90;;;;;;5135701;28;20087;-78
2020/12/27 05:40:06;;;;;;;8.90;5.32;;;1.80;99.90;;;;;;5141842;28;20340;-77
2020/12/27 05:42:31;;;;;;;7.22;5.18;;;1.80;99.90;;;;;;5137106;28;20164;-75
2020/12/27 05:45:00;;;;;;;8.32;4.40;;;1.90;99.90;;;;;;5105499;28;20059;-75
2020/12/27 05:47:27;;;;;;;7.10;4.95;;;1.80;99.90;;;;;;5132951;28;20033;-74
2020/12/27 05:49:54;;;;;;;6.80;4.65;;;1.80;99.90;;;;;;5137600;28;20036;-74
2020/12/27 05:52:33;;;;;;;6.65;4.57;;;1.70;99.90;;;;;;5129380;28;20023;-75
2020/12/27 05:55:04;;;;;;;9.65;4.90;;;1.70;99.90;;;;;;5134630;27;20031;-76
2020/12/27 05:57:33;;;;;;;7.90;5.03;;;1.70;99.90;;;;;;5131300;27;20015;-75
2020/12/27 06:00:03;;;;;;;6.82;4.30;;;1.70;99.90;;;;;;5135031;27;20113;-75
2020/12/27 06:02:40;;;;;;;8.32;5.40;;;1.70;99.90;;;;;;5122954;28;20084;-77
2020/12/27 06:05:10;;;;;;;12.13;5.60;;;1.70;99.90;;;;;;5142527;27;20034;-77
2020/12/27 06:07:46;;;;;;;7.22;5.10;;;1.60;99.90;;;;;;5137330;27;20019;-77
2020/12/27 06:10:21;;;;;;;9.00;4.53;;;1.70;99.90;;;;;;5136172;27;20038;-78
2020/12/27 06:13:12;;;;;;;7.60;4.82;;;1.70;99.90;;;;;;5147720;27;20031;-80
2020/12/27 06:15:45;;;;;;;7.82;4.88;;;1.70;99.90;;;;;;5137289;27;20043;-80
2020/12/27 06:18:13;;;;;;;10.18;5.55;;;1.60;99.90;;;;;;5125445;27;20471;-77
2020/12/27 06:20:41;;;;;;;8.90;5.25;;;1.70;99.90;;;;;;5127473;27;20031;-77
2020/12/27 06:23:07;;;;;;;7.78;4.70;;;1.70;99.90;;;;;;5140383;27;20020;-76
2020/12/27 06:25:33;;;;;;;9.68;4.85;;;1.70;99.90;;;;;;5139034;27;20028;-80
2020/12/27 06:28:00;;;;;;;7.00;4.75;;;1.70;99.90;;;;;;5145768;27;20019;-79
2020/12/27 06:30:30;;;;;;;7.40;4.80;;;1.70;99.90;;;;;;5139423;27;20032;-80
2020/12/27 06:33:34;;;;;;;8.85;5.75;;;1.60;99.90;;;;;;5140979;27;20019;-78
2020/12/27 06:35:59;;;;;;;9.32;5.05;;;1.60;99.90;;;;;;5103197;27;20158;-78
2020/12/27 06:38:25;;;;;;;8.43;4.50;;;1.60;99.90;;;;;;5136803;27;20031;-80
2020/12/27 06:41:03;;;;;;;5.70;3.83;;;1.60;99.90;;;;;;5137414;27;20020;-78
2020/12/27 06:43:29;;;;;;;5.78;4.45;;;1.70;99.90;;;;;;5144067;27;20039;-79
2020/12/27 06:46:21;;;;;;;7.45;4.55;;;1.60;99.90;;;;;;5139370;27;20070;-77
2020/12/27 06:48:47;;;;;;;8.00;3.88;;;1.60;99.90;;;;;;5114106;27;20032;-81
2020/12/27 06:51:39;;;;;;;5.15;2.97;;;1.70;99.90;;;;;;5145903;27;20030;-81
2020/12/27 06:54:04;;;;;;;;;;;1.70;99.90;;;;;;5121114;27;20034;-79
2020/12/27 06:56:42;;;;;;;6.45;3.75;;;1.60;99.90;;;;;;5132773;27;19908;-79
2020/12/27 06:59:08;;;;;;;6.82;3.78;;;1.60;99.90;;;;;;5127876;27;20410;-76
2020/12/27 07:01:34;;;;;;;7.15;4.10;;;1.60;99.90;;;;;;5126364;27;20023;-76
2020/12/27 07:04:13;;;;;;;6.95;3.72;;;1.70;99.90;;;;;;5134444;27;20031;-78
2020/12/27 07:06:45;;;;;;;5.78;3.05;;;1.70;99.90;;;;;;5132998;27;20023;-79
2020/12/27 07:09:18;;;;;;;5.75;3.35;;;1.80;99.90;;;;;;5140308;27;20094;-76
2020/12/27 07:11:44;;;;;;;5.28;3.40;;;1.80;99.90;;;;;;5133165;27;20029;-77
2020/12/27 07:14:12;;;;;;;6.93;3.50;;;1.80;99.90;;;;;;5136824;27;20030;-77
2020/12/27 07:16:43;;;;;;;4.35;3.30;;;1.80;99.90;;;;;;5133978;27;20126;-77
2020/12/27 07:19:14;;;;;;;5.50;3.33;;;1.80;99.90;;;;;;5137991;27;20015;-76
2020/12/27 07:21:40;;;;;;;5.80;3.72;;;1.80;99.90;;;;;;5127069;27;20042;-76
2020/12/27 07:24:08;;;;;;;6.60;3.47;;;1.80;99.90;;;;;;5133963;27;20032;-77
2020/12/27 07:26:43;;;;;;;6.03;3.38;;;1.80;99.90;;;;;;5134677;27;20041;-76
2020/12/27 07:29:12;;;;;;;7.78;3.45;;;1.80;99.90;;;;;;5121616;27;20028;-78
2020/12/27 07:31:39;;;;;;;9.82;3.28;;;1.80;99.90;;;;;;5113969;27;20019;-77
2020/12/27 07:34:06;;;;;;;5.80;2.80;;;1.80;99.90;;;;;;5133968;27;20039;-76
2020/12/27 07:36:41;;;;;;;6.05;2.85;;;1.80;99.90;;;;;;5119768;27;20411;-76
2020/12/27 07:39:10;;;;;;;8.23;3.47;;;1.80;99.90;;;;;;5129652;27;20020;-76
2020/12/27 07:41:40;;;;;;;5.38;3.03;;;1.70;99.90;;;;;;5129606;27;20023;-76
2020/12/27 07:44:13;;;;;;;3.55;2.67;;;1.70;99.90;;;;;;5116525;27;20103;-76
2020/12/27 07:46:40;;;;;;;6.32;2.88;;;1.70;99.90;;;;;;5130707;27;20016;-76
2020/12/27 07:49:14;;;;;;;5.47;2.85;;;1.70;99.90;;;;;;5130954;27;20388;-78
2020/12/27 07:51:40;;;;;;;5.82;3.08;;;1.80;99.90;;;;;;5127868;27;20027;-76
2020/12/27 07:54:07;;;;;;;4.30;2.90;;;1.80;99.90;;;;;;5140118;27;20027;-76
2020/12/27 07:56:33;;;;;;;4.97;3.30;;;1.80;99.90;;;;;;5137337;27;20119;-76
2020/12/27 07:59:03;;;;;;;4.70;2.72;;;1.80;99.90;;;;;;5120078;27;20028;-74
2020/12/27 08:01:34;;;;;;;4.38;2.80;;;1.80;99.90;;;;;;5134052;27;20031;-79
2020/12/27 08:04:05;;;;;;;4.03;2.20;;;1.80;99.90;;;;;;5130507;27;20123;-75
2020/12/27 08:06:32;;;;;;;7.10;4.03;;;1.80;99.00;;;;;;5116697;27;20030;-77
2020/12/27 08:09:12;;;;;;;4.97;2.60;;;1.80;98.70;;;;;;5130129;27;20047;-78
2020/12/27 08:11:42;;;;;;;5.32;2.83;;;1.80;98.70;;;;;;5131167;27;20027;-76
2020/12/27 08:14:10;;;;;;;4.88;2.50;;;1.80;98.10;;;;;;5130940;27;20027;-75
2020/12/27 08:16:37;;;;;;;3.70;2.33;;;1.80;98.20;;;;;;5131396;27;20046;-77
2020/12/27 08:19:11;;;;;;;4.53;2.33;;;1.90;97.30;;;;;;5127849;27;20027;-74
2020/12/27 08:21:39;;;;;;;4.00;2.50;;;1.80;97.60;;;;;;5118879;27;20035;-78
2020/12/27 08:24:09;;;;;;;5.65;2.78;;;1.80;97.60;;;;;;5114904;27;20035;-75
2020/12/27 08:26:37;;;;;;;4.22;2.10;;;1.90;97.10;;;;;;5116364;28;20027;-75
2020/12/27 08:29:15;;;;;;;4.07;2.45;;;1.90;96.60;;;;;;5104474;28;20031;-76
2020/12/27 08:31:47;;;;;;;4.10;2.35;;;1.90;96.90;;;;;;5115681;28;20752;-75
2020/12/27 08:34:18;;;;;;;4.75;2.40;;;1.90;97.00;;;;;;5111327;28;20165;-76
2020/12/27 08:36:50;;;;;;;6.63;2.42;;;1.80;97.00;;;;;;5111580;28;20023;-74
2020/12/27 08:39:34;;;;;;;5.30;2.03;;;1.90;96.80;;;;;;5112271;28;20054;-79
2020/12/27 08:42:31;;;;;;;3.85;2.63;;;1.90;96.00;;;;;;5094613;28;20086;-76
2020/12/27 08:45:12;;;;;;;5.45;2.83;;;1.80;96.50;;;;;;5079582;28;20051;-76
2020/12/27 08:47:50;;;;;;;4.43;2.38;;;1.90;96.20;;;;;;5113549;28;20032;-75
2020/12/27 08:50:19;;;;;;;4.90;2.35;;;1.90;95.50;;;;;;5109410;28;20019;-75
2020/12/27 08:52:51;;;;;;;4.97;2.67;;;1.90;95.20;;;;;;5111649;28;20027;-78
2020/12/27 08:55:21;;;;;;;;;;;1.90;95.60;;;;;;5110627;28;20027;-80
2020/12/27 08:57:46;;;;;;;4.85;2.22;;;2.00;94.80;;;;;;5109224;28;19952;-77
2020/12/27 09:00:13;;;;;;;4.75;2.20;;;2.00;94.60;;;;;;5107809;28;20390;-77
2020/12/27 09:02:40;;;;;;;6.60;2.65;;;2.10;94.40;;;;;;5109279;28;20048;-76
2020/12/27 09:05:08;;;;;;;4.78;2.70;;;2.20;93.60;;;;;;5111785;28;20039;-78
2020/12/27 09:07:45;;;;;;;3.17;2.35;;;2.10;93.70;;;;;;5113325;28;20091;-79
2020/12/27 09:10:20;;;;;;;4.60;2.47;;;2.10;93.80;;;;;;5109291;28;20387;-78
2020/12/27 09:13:08;;;;;;;4.00;2.50;;;2.10;94.20;;;;;;5105899;28;20035;-75
2020/12/27 09:15:34;;;;;;;5.80;3.08;;;2.20;93.90;;;;;;5099227;28;20843;-77
2020/12/27 09:18:04;;;;;;;4.53;3.05;;;2.20;93.80;;;;;;5087174;28;20046;-76
2020/12/27 09:20:32;;;;;;;3.97;2.72;;;2.10;93.80;;;;;;5084502;28;20146;-78
2020/12/27 09:22:58;;;;;;;4.25;2.63;;;2.10;93.70;;;;;;5086627;28;20148;-78
2020/12/27 09:25:25;;;;;;;5.60;3.10;;;2.10;94.20;;;;;;5088226;28;20696;-76
2020/12/27 09:27:52;;;;;;;5.80;2.90;;;2.20;93.40;;;;;;5077021;28;20124;-76
2020/12/27 09:30:25;;;;;;;3.92;2.78;;;2.10;93.40;;;;;;5089517;28;20081;-77
2020/12/27 09:32:59;;;;;;;4.65;2.90;;;2.10;93.70;;;;;;5086903;28;20543;-76
2020/12/27 09:35:25;;;;;;;5.15;3.10;;;2.20;92.80;;;;;;5088499;28;20039;-76
2020/12/27 09:37:51;;;;;;;5.50;2.45;;;2.20;93.20;;;;;;5068671;28;20024;-74
2020/12/27 09:40:18;;;;;;;4.72;2.60;;;2.30;92.90;;;;;;5089539;28;20026;-75
2020/12/27 09:42:45;;;;;;;4.00;2.45;;;2.30;93.20;;;;;;5083334;28;20125;-76
2020/12/27 09:45:22;;;;;;;7.28;2.40;;;2.30;93.10;;;;;;5090450;28;20032;-75
2020/12/27 09:47:59;;;;;;;4.57;3.42;;;2.30;93.20;;;;;;5095887;28;20021;-79
2020/12/27 09:50:45;;;;;;;3.05;2.70;;;2.30;93.30;;;;;;5093692;28;21015;-76
2020/12/27 09:53:18;;;;;;;4.28;3.20;;;2.30;93.00;;;;;;5099825;28;20047;-78
2020/12/27 09:55:43;;;;;;;5.13;2.97;;;2.30;93.50;;;;;;5100014;28;20463;-75
2020/12/27 09:58:12;;;;;;;4.72;2.67;;;2.40;93.00;;;;;;5093754;28;20028;-74
2020/12/27 10:00:37;;;;;;;6.80;3.35;;;2.30;92.70;;;;;;5098319;28;20024;-77
2020/12/27 10:03:04;;;;;;;5.70;3.00;;;2.30;92.90;;;;;;5100616;28;20028;-75
2020/12/27 10:05:29;;;;;;;6.40;2.90;;;2.30;92.40;;;;;;5102785;28;20028;-77
2020/12/27 10:07:55;;;;;;;3.47;2.80;;;2.40;92.30;;;;;;5097397;28;20558;-77
2020/12/27 10:10:20;;;;;;;5.22;3.25;;;2.40;92.40;;;;;;5096059;28;20107;-77
2020/12/27 10:12:46;;;;;;;4.20;3.10;;;2.40;91.50;;;;;;5096789;28;20032;-79
2020/12/27 10:15:11;;;;;;;4.75;3.03;;;2.40;91.60;;;;;;5107450;28;20071;-76
2020/12/27 10:17:37;;;;;;;4.90;2.95;;;2.40;92.10;;;;;;5120840;27;20415;-75
2020/12/27 10:20:05;;;;;;;5.18;3.13;;;2.50;92.10;;;;;;5115359;27;20034;-75
2020/12/27 10:22:31;;;;;;;5.85;3.05;;;2.50;91.80;;;;;;5114071;28;20031;-76
2020/12/27 10:24:56;;;;;;;3.75;2.40;;;2.60;91.40;;;;;;5094554;27;20035;-79
2020/12/27 10:27:22;;;;;;;5.50;3.05;;;2.50;91.50;;;;;;5114478;27;20407;-76
2020/12/27 10:29:48;;;;;;;5.57;2.88;;;2.40;91.60;;;;;;5110029;27;20056;-74
2020/12/27 10:32:13;;;;;;;4.82;3.03;;;2.50;91.70;;;;;;5114235;27;20102;-77
2020/12/27 10:34:39;;;;;;;6.25;3.38;;;2.40;92.50;;;;;;5114115;28;20034;-76
2020/12/27 10:37:05;;;;;;;5.97;2.97;;;2.50;91.70;;;;;;5116234;27;20495;-74
2020/12/27 10:39:31;;;;;;;4.35;2.83;;;2.50;91.60;;;;;;5108136;28;20024;-77
2020/12/27 10:42:06;;;;;;;5.47;3.40;;;2.50;90.00;;;;;;5111219;27;20036;-77
2020/12/27 10:44:32;;;;;;;6.22;3.20;;;2.60;90.10;;;;;;5114910;27;20156;-76
2020/12/27 10:46:57;;;;;;;10.48;3.55;;;2.60;89.20;;;;;;5120365;27;20039;-76
2020/12/27 10:49:23;;;;;;;5.30;3.38;;;2.60;90.00;;;;;;5102345;28;20031;-77
2020/12/27 10:51:50;;;;;;;8.82;3.33;;;2.60;88.30;;;;;;5120235;28;20049;-75
2020/12/27 10:54:16;;;;;;;4.75;2.88;;;2.50;88.30;;;;;;5118027;27;20032;-78
2020/12/27 10:56:43;;;;;;;4.05;3.03;;;2.60;88.70;;;;;;5116368;27;20429;-79
2020/12/27 10:59:10;;;;;;;5.82;3.25;;;2.50;90.00;;;;;;5115154;27;20031;-75
2020/12/27 11:01:35;;;;;;;4.10;2.90;;;2.50;90.10;;;;;;5108850;27;20031;-78
2020/12/27 11:04:01;;;;;;;5.93;2.97;;;2.50;89.40;;;;;;5105808;27;20403;-77
2020/12/27 11:06:31;;;;;;;5.65;2.83;;;2.60;88.40;;;;;;5104144;28;20034;-77
2020/12/27 11:08:57;;;;;;;3.80;2.67;;;2.60;88.90;;;;;;5112251;27;20031;-77
2020/12/27 11:11:23;;;;;;;5.53;3.08;;;2.60;88.70;;;;;;5091068;28;20157;-78
2020/12/27 11:13:48;;;;;;;4.22;2.70;;;2.60;89.00;;;;;;5107042;28;20461;-77
2020/12/27 11:16:15;;;;;;;5.28;2.88;;;2.60;88.70;;;;;;5106867;27;20097;-77
2020/12/27 11:18:40;;;;;;;7.22;2.75;;;2.40;89.30;;;;;;5102185;27;20043;-77
2020/12/27 11:21:06;;;;;;;3.95;2.58;;;2.60;90.00;;;;;;5106989;28;20023;-78
2020/12/27 11:23:31;;;;;;;4.25;2.97;;;2.60;89.90;;;;;;5106251;27;20559;-76
2020/12/27 11:25:57;;;;;;;5.25;3.35;;;2.50;90.00;;;;;;5086848;27;20035;-76
2020/12/27 11:28:22;;;;;;;5.82;3.47;;;2.60;90.30;;;;;;5106561;28;20034;-78
2020/12/27 11:30:48;;;;;;;5.60;2.83;;;2.70;87.70;;;;;;5109133;27;20566;-76
2020/12/27 11:33:13;;;;;;;4.75;3.03;;;2.70;87.20;;;;;;5088145;28;20034;-76
2020/12/27 11:35:39;;;;;;;4.70;2.78;;;2.70;87.60;;;;;;5106284;27;20146;-75
2020/12/27 11:38:05;;;;;;;7.35;2.70;;;2.80;86.80;;;;;;5104196;27;20032;-76
2020/12/27 11:40:30;;;;;;;5.22;3.08;;;2.80;85.60;;;;;;5106395;27;20059;-75
2020/12/27 11:42:58;;;;;;;6.60;2.90;;;2.80;85.40;;;;;;5105619;27;20722;-77
2020/12/27 11:45:23;;;;;;;4.03;2.58;;;2.80;84.10;;;;;;5107626;27;20503;-76
2020/12/27 11:47:49;;;;;;;3.53;2.17;;;2.70;82.20;;;;;;5105153;27;20039;-77
2020/12/27 11:50:14;;;;;;;3.85;2.20;;;2.70;83.00;;;;;;5104662;27;20425;-76
2020/12/27 11:52:40;;;;;;;3.97;2.90;;;2.70;83.20;;;;;;5108126;27;20464;-76
2020/12/27 11:55:05;;;;;;;3.92;2.47;;;2.80;83.90;;;;;;5112159;27;20024;-77
2020/12/27 11:57:31;;;;;;;5.55;2.83;;;2.80;82.30;;;;;;5106312;27;20023;-75
2020/12/27 11:59:56;;;;;;;4.63;2.38;;;2.80;81.90;;;;;;5109347;27;20039;-76
2020/12/27 12:02:23;;;;;;;7.05;2.50;;;2.70;82.20;;;;;;5094185;28;20032;-76
2020/12/27 12:04:48;;;;;;;4.18;2.25;;;2.90;79.00;;;;;;5100589;28;20047;-76
2020/12/27 12:07:13;;;;;;;4.68;2.40;;;3.00;77.30;;;;;;5115938;27;20035;-78
2020/12/27 12:09:40;;;;;;;5.47;2.40;;;2.90;78.20;;;;;;5114518;28;20034;-76
2020/12/27 12:12:07;;;;;;;3.13;2.08;;;2.90;76.90;;;;;;5116007;27;20028;-77
2020/12/27 12:14:32;;;;;;;4.75;2.22;;;3.00;75.70;;;;;;5110308;27;20027;-77
2020/12/27 12:16:58;;;;;;;2.97;2.28;;;3.10;74.30;;;;;;5097091;28;20043;-77
2020/12/27 12:19:23;;;;;;;3.55;1.80;;;3.00;73.60;;;;;;5097648;28;20088;-76
2020/12/27 12:21:52;;;;;;;2.88;1.60;;;3.10;73.20;;;;;;5096404;28;20032;-78
2020/12/27 12:24:19;;;;;;;3.05;1.88;;;3.10;71.60;;;;;;5095854;28;20050;-78
2020/12/27 12:26:45;;;;;;;2.40;1.90;;;3.20;70.00;;;;;;5093441;28;20081;-77
2020/12/27 12:29:10;;;;;;;2.65;1.88;;;3.20;70.10;;;;;;5090290;28;20472;-78
2020/12/27 12:31:36;;;;;;;4.43;2.08;;;3.20;70.30;;;;;;5090744;28;20793;-78
2020/12/27 12:34:01;;;;;;;2.70;1.75;;;3.20;71.30;;;;;;5090141;28;20848;-78
2020/12/27 12:36:27;;;;;;;3.50;1.95;;;3.10;72.70;;;;;;5095869;28;20024;-78
2020/12/27 12:38:53;;;;;;;4.25;1.85;;;3.10;73.60;;;;;;5095274;28;20093;-77
2020/12/27 12:41:23;;;;;;;3.17;2.33;;;3.10;73.90;;;;;;5095902;28;20077;-78
2020/12/27 12:43:49;;;;;;;3.20;1.90;;;3.00;73.70;;;;;;5091553;28;20031;-76
2020/12/27 12:46:14;;;;;;;2.47;1.73;;;3.00;74.00;;;;;;5093221;28;20725;-77
2020/12/27 12:48:40;;;;;;;2.35;1.75;;;3.00;75.30;;;;;;5090906;28;20087;-78
2020/12/27 12:51:08;;;;;;;2.55;1.80;;;3.00;74.80;;;;;;5090396;28;20054;-77
2020/12/27 12:53:35;;;;;;;2.97;2.05;;;3.00;74.10;;;;;;5084106;28;20124;-76
2020/12/27 12:56:01;;;;;;;3.78;2.40;;;3.00;73.80;;;;;;5080299;28;20036;-76
2020/12/27 12:58:26;;;;;;;3.65;1.55;;;3.00;73.70;;;;;;5081468;28;20036;-76
2020/12/27 13:00:52;;;;;;;2.85;1.80;;;3.00;73.50;;;;;;5083555;28;20434;-75